sensor_id;sensor_type;location;lat;lon;timestamp;temperature;humidity
16893;DHT22;8563;52.242;9.098;2022-12-29T09:41:22;10.30;99.90
16893;DHT22;8563;52.242;9.098;2022-12-29T09:44:06;10.10;99.90
16893;DHT22;8563;52.242;9.098;2022-12-29T09:46:40;10.20;99.90
16893;DHT22;8563;52.242;9.098;2022-12-29T09:49:21;10.30;99.90
16893;DHT22;8563;52.242;9.098;2022-12-29T09:51:59;10.40;99.90
16893;DHT22;8563;52.242;9.098;2022-12-29T09:54:45;10.40;99.90
16893;DHT22;8563;52.242;9.098;2022-12-29T09:57:24;10.50;99.90
16893;DHT22;8563;52.242;9.098;2022-12-29T10:00:01;10.70;99.90
16893;DHT22;8563;52.242;9.098;2022-12-29T10:02:45;10.70;99.90
16893;DHT22;8563;52.242;9.098;2022-12-29T10:05:29;10.90;99.90
16893;DHT22;8563;52.242;9.098;2022-12-29T10:08:19;11.00;99.90
16893;DHT22;8563;52.242;9.098;2022-12-29T10:10:56;11.00;99.90
16893;DHT22;8563;52.242;9.098;2022-12-29T10:13:38;10.90;99.90
16893;DHT22;8563;52.242;9.098;2022-12-29T10:16:18;11.10;99.90
16893;DHT22;8563;52.242;9.098;2022-12-29T10:19:14;11.10;99.90
16893;DHT22;8563;52.242;9.098;2022-12-29T10:22:00;11.10;99.90
16893;DHT22;8563;52.242;9.098;2022-12-29T10:24:38;11.00;99.90
16893;DHT22;8563;52.242;9.098;2022-12-29T10:27:12;10.80;99.90
16893;DHT22;8563;52.242;9.098;2022-12-29T10:29:50;10.80;99.90
16893;DHT22;8563;52.242;9.098;2022-12-29T10:32:29;10.80;99.90
16893;DHT22;8563;52.242;9.098;2022-12-29T10:35:06;10.80;99.90
16893;DHT22;8563;52.242;9.098;2022-12-29T10:37:45;11.00;99.90
16893;DHT22;8563;52.242;9.098;2022-12-29T10:40:23;11.00;99.90
16893;DHT22;8563;52.242;9.098;2022-12-29T10:42:58;10.90;99.90
16893;DHT22;8563;52.242;9.098;2022-12-29T10:45:32;10.80;99.90
16893;DHT22;8563;52.242;9.098;2022-12-29T10:48:09;10.70;99.90
16893;DHT22;8563;52.242;9.098;2022-12-29T10:50:45;10.80;99.90
16893;DHT22;8563;52.242;9.098;2022-12-29T10:53:21;11.00;99.90
16893;DHT22;8563;52.242;9.098;2022-12-29T10:55:55;11.20;99.90
16893;DHT22;8563;52.242;9.098;2022-12-29T10:58:28;11.20;99.90
16893;DHT22;8563;52.242;9.098;2022-12-29T11:01:03;11.30;99.90
16893;DHT22;8563;52.242;9.098;2022-12-29T11:03:46;11.30;99.90
16893;DHT22;8563;52.242;9.098;2022-12-29T11:06:24;11.40;99.90
16893;DHT22;8563;52.242;9.098;2022-12-29T11:09:01;11.30;99.90
16893;DHT22;8563;52.242;9.098;2022-12-29T11:11:35;11.30;99.90
16893;DHT22;8563;52.242;9.098;2022-12-29T11:14:12;11.20;99.90
16893;DHT22;8563;52.242;9.098;2022-12-29T11:16:56;11.10;99.90
16893;DHT22;8563;52.242;9.098;2022-12-29T11:19:31;11.10;99.90
16893;DHT22;8563;52.242;9.098;2022-12-29T11:22:13;11.10;99.90
16893;DHT22;8563;52.242;9.098;2022-12-29T11:24:47;11.10;99.90
16893;DHT22;8563;52.242;9.098;2022-12-29T11:27:22;11.10;99.90
16893;DHT22;8563;52.242;9.098;2022-12-29T11:29:55;11.10;99.90
16893;DHT22;8563;52.242;9.098;2022-12-29T11:32:28;11.20;99.90
16893;DHT22;8563;52.242;9.098;2022-12-29T11:35:04;11.20;99.90
16893;DHT22;8563;52.242;9.098;2022-12-29T11:37:38;11.30;99.90
16893;DHT22;8563;52.242;9.098;2022-12-29T11:40:17;11.40;99.90
16893;DHT22;8563;52.242;9.098;2022-12-29T11:42:52;11.40;99.90
16893;DHT22;8563;52.242;9.098;2022-12-29T11:45:25;11.40;99.90
16893;DHT22;8563;52.242;9.098;2022-12-29T11:48:06;11.40;99.90
16893;DHT22;8563;52.242;9.098;2022-12-29T11:50:40;11.50;99.90
16893;DHT22;8563;52.242;9.098;2022-12-29T11:53:17;11.40;99.90
16893;DHT22;8563;52.242;9.098;2022-12-29T11:55:53;11.40;99.90
16893;DHT22;8563;52.242;9.098;2022-12-29T11:58:29;11.40;99.90
16893;DHT22;8563;52.242;9.098;2022-12-29T12:01:05;11.30;99.90
16893;DHT22;8563;52.242;9.098;2022-12-29T12:03:45;11.30;99.90
16893;DHT22;8563;52.242;9.098;2022-12-29T12:06:20;11.40;99.90
16893;DHT22;8563;52.242;9.098;2022-12-29T12:08:57;11.40;99.90
16893;DHT22;8563;52.242;9.098;2022-12-29T12:11:33;11.40;99.90
16893;DHT22;8563;52.242;9.098;2022-12-29T12:14:14;11.40;99.90
16893;DHT22;8563;52.242;9.098;2022-12-29T12:17:17;11.40;99.90
16893;DHT22;8563;52.242;9.098;2022-12-29T12:19:58;11.40;99.90
16893;DHT22;8563;52.242;9.098;2022-12-29T12:22:35;11.40;99.90
16893;DHT22;8563;52.242;9.098;2022-12-29T12:25:12;11.40;99.90
16893;DHT22;8563;52.242;9.098;2022-12-29T12:27:51;11.40;99.90
16893;DHT22;8563;52.242;9.098;2022-12-29T12:30:29;11.40;99.90
16893;DHT22;8563;52.242;9.098;2022-12-29T12:33:05;11.40;99.90
16893;DHT22;8563;52.242;9.098;2022-12-29T12:35:44;11.40;99.90
16893;DHT22;8563;52.242;9.098;2022-12-29T12:38:25;11.40;99.90
16893;DHT22;8563;52.242;9.098;2022-12-29T12:41:04;11.40;99.90
16893;DHT22;8563;52.242;9.098;2022-12-29T12:43:44;11.40;99.90
16893;DHT22;8563;52.242;9.098;2022-12-29T12:50:02;11.30;99.90
16893;DHT22;8563;52.242;9.098;2022-12-29T12:52:53;11.40;99.90
16893;DHT22;8563;52.242;9.098;2022-12-29T12:55:48;11.40;99.90
16893;DHT22;8563;52.242;9.098;2022-12-29T12:58:28;11.40;99.90
16893;DHT22;8563;52.242;9.098;2022-12-29T13:01:11;11.30;99.90
16893;DHT22;8563;52.242;9.098;2022-12-29T13:03:59;11.40;99.90
16893;DHT22;8563;52.242;9.098;2022-12-29T13:06:40;11.40;99.90
16893;DHT22;8563;52.242;9.098;2022-12-29T13:09:34;11.40;99.90
16893;DHT22;8563;52.242;9.098;2022-12-29T13:12:22;11.30;99.90
16893;DHT22;8563;52.242;9.098;2022-12-29T13:15:04;11.30;99.90
16893;DHT22;8563;52.242;9.098;2022-12-29T13:17:45;11.30;99.90
16893;DHT22;8563;52.242;9.098;2022-12-29T13:20:25;11.40;99.90
16893;DHT22;8563;52.242;9.098;2022-12-29T13:23:05;11.40;99.90
16893;DHT22;8563;52.242;9.098;2022-12-29T13:25:47;11.40;99.90
16893;DHT22;8563;52.242;9.098;2022-12-29T13:28:25;11.40;99.90
16893;DHT22;8563;52.242;9.098;2022-12-29T13:31:04;11.40;99.90
16893;DHT22;8563;52.242;9.098;2022-12-29T13:33:45;11.30;99.90
16893;DHT22;8563;52.242;9.098;2022-12-29T13:36:23;11.40;99.90
16893;DHT22;8563;52.242;9.098;2022-12-29T13:39:02;11.40;99.90
16893;DHT22;8563;52.242;9.098;2022-12-29T13:41:40;11.40;99.90
16893;DHT22;8563;52.242;9.098;2022-12-29T13:44:46;11.30;99.90
16893;DHT22;8563;52.242;9.098;2022-12-29T13:47:28;11.30;99.90
16893;DHT22;8563;52.242;9.098;2022-12-29T13:50:03;11.30;99.90
16893;DHT22;8563;52.242;9.098;2022-12-29T13:52:42;11.30;99.90
16893;DHT22;8563;52.242;9.098;2022-12-29T13:55:24;11.30;99.90
16893;DHT22;8563;52.242;9.098;2022-12-29T13:58:03;11.30;99.90
16893;DHT22;8563;52.242;9.098;2022-12-29T14:00:44;11.30;99.90
16893;DHT22;8563;52.242;9.098;2022-12-29T14:06:23;11.30;99.90
16893;DHT22;8563;52.242;9.098;2022-12-29T14:09:00;11.30;99.90
16893;DHT22;8563;52.242;9.098;2022-12-29T14:11:35;11.30;99.90
16893;DHT22;8563;52.242;9.098;2022-12-29T14:14:18;11.30;99.90
16893;DHT22;8563;52.242;9.098;2022-12-29T14:16:52;11.30;99.90
16893;DHT22;8563;52.242;9.098;2022-12-29T14:19:28;11.20;99.90
16893;DHT22;8563;52.242;9.098;2022-12-29T14:22:03;11.20;99.90
16893;DHT22;8563;52.242;9.098;2022-12-29T14:24:41;11.20;99.90
16893;DHT22;8563;52.242;9.098;2022-12-29T14:27:52;11.20;99.90
16893;DHT22;8563;52.242;9.098;2022-12-29T14:30:54;11.20;99.90
16893;DHT22;8563;52.242;9.098;2022-12-29T14:33:28;11.10;99.90
16893;DHT22;8563;52.242;9.098;2022-12-29T14:36:19;11.10;99.90
16893;DHT22;8563;52.242;9.098;2022-12-29T14:38:52;11.10;99.90
16893;DHT22;8563;52.242;9.098;2022-12-29T14:41:29;11.10;99.90
16893;DHT22;8563;52.242;9.098;2022-12-29T14:44:14;11.10;99.90
16893;DHT22;8563;52.242;9.098;2022-12-29T14:46:56;11.10;99.90
16893;DHT22;8563;52.242;9.098;2022-12-29T14:49:31;11.00;99.90
16893;DHT22;8563;52.242;9.098;2022-12-29T14:52:07;11.00;99.90
16893;DHT22;8563;52.242;9.098;2022-12-29T14:54:53;11.00;99.90
16893;DHT22;8563;52.242;9.098;2022-12-29T14:57:32;11.00;99.90
16893;DHT22;8563;52.242;9.098;2022-12-29T15:00:13;10.90;99.90
16893;DHT22;8563;52.242;9.098;2022-12-29T15:02:50;10.80;99.90
16893;DHT22;8563;52.242;9.098;2022-12-29T15:05:33;10.70;99.90
16893;DHT22;8563;52.242;9.098;2022-12-29T15:08:07;10.70;99.90
16893;DHT22;8563;52.242;9.098;2022-12-29T15:10:45;10.70;99.90
16893;DHT22;8563;52.242;9.098;2022-12-29T15:13:22;10.60;99.90
16893;DHT22;8563;52.242;9.098;2022-12-29T15:15:55;10.60;99.90
16893;DHT22;8563;52.242;9.098;2022-12-29T15:18:31;10.70;99.90
16893;DHT22;8563;52.242;9.098;2022-12-29T15:21:05;10.70;99.90
16893;DHT22;8563;52.242;9.098;2022-12-29T15:23:38;10.70;99.90
16893;DHT22;8563;52.242;9.098;2022-12-29T15:26:11;10.70;99.90
16893;DHT22;8563;52.242;9.098;2022-12-29T15:28:52;10.70;99.90
16893;DHT22;8563;52.242;9.098;2022-12-29T15:31:25;10.70;99.90
16893;DHT22;8563;52.242;9.098;2022-12-29T15:34:10;10.70;99.90
16893;DHT22;8563;52.242;9.098;2022-12-29T15:36:43;10.60;99.90
16893;DHT22;8563;52.242;9.098;2022-12-29T15:39:18;10.50;99.90
16893;DHT22;8563;52.242;9.098;2022-12-29T15:41:55;10.50;99.90
16893;DHT22;8563;52.242;9.098;2022-12-29T15:44:36;10.50;99.90
16893;DHT22;8563;52.242;9.098;2022-12-29T15:47:15;10.40;99.90
16893;DHT22;8563;52.242;9.098;2022-12-29T15:49:52;10.40;99.90
16893;DHT22;8563;52.242;9.098;2022-12-29T15:52:27;10.40;99.90
16893;DHT22;8563;52.242;9.098;2022-12-29T15:55:00;10.40;99.90
16893;DHT22;8563;52.242;9.098;2022-12-29T15:57:41;10.40;99.90
16893;DHT22;8563;52.242;9.098;2022-12-29T16:00:24;10.40;99.90
16893;DHT22;8563;52.242;9.098;2022-12-29T16:03:00;10.40;99.90
16893;DHT22;8563;52.242;9.098;2022-12-29T16:05:36;10.40;99.90
16893;DHT22;8563;52.242;9.098;2022-12-29T16:08:30;10.40;99.90
16893;DHT22;8563;52.242;9.098;2022-12-29T16:11:16;10.30;99.90
16893;DHT22;8563;52.242;9.098;2022-12-29T16:13:52;10.30;99.90
16893;DHT22;8563;52.242;9.098;2022-12-29T16:16:28;10.30;99.90
16893;DHT22;8563;52.242;9.098;2022-12-29T16:19:02;10.20;99.90
16893;DHT22;8563;52.242;9.098;2022-12-29T16:21:37;10.20;99.90
16893;DHT22;8563;52.242;9.098;2022-12-29T16:24:14;10.20;99.90
16893;DHT22;8563;52.242;9.098;2022-12-29T16:26:48;10.20;99.90
16893;DHT22;8563;52.242;9.098;2022-12-29T16:29:21;10.20;99.90
16893;DHT22;8563;52.242;9.098;2022-12-29T16:31:56;10.20;99.90
16893;DHT22;8563;52.242;9.098;2022-12-29T16:34:43;10.20;99.90
16893;DHT22;8563;52.242;9.098;2022-12-29T16:37:28;10.20;99.90
16893;DHT22;8563;52.242;9.098;2022-12-29T16:40:26;10.30;99.90
16893;DHT22;8563;52.242;9.098;2022-12-29T16:43:00;10.30;99.90
16893;DHT22;8563;52.242;9.098;2022-12-29T16:48:56;10.30;99.90
16893;DHT22;8563;52.242;9.098;2022-12-29T16:51:30;10.30;99.90
16893;DHT22;8563;52.242;9.098;2022-12-29T16:54:05;10.40;99.90
16893;DHT22;8563;52.242;9.098;2022-12-29T16:56:43;10.40;99.90
16893;DHT22;8563;52.242;9.098;2022-12-29T16:59:31;10.40;99.90
16893;DHT22;8563;52.242;9.098;2022-12-29T17:02:07;10.40;99.90
16893;DHT22;8563;52.242;9.098;2022-12-29T17:04:40;10.40;99.90
16893;DHT22;8563;52.242;9.098;2022-12-29T17:07:16;10.40;99.90
16893;DHT22;8563;52.242;9.098;2022-12-29T17:09:50;10.40;99.90
16893;DHT22;8563;52.242;9.098;2022-12-29T17:12:26;10.40;99.90
16893;DHT22;8563;52.242;9.098;2022-12-29T17:15:01;10.40;99.90
16893;DHT22;8563;52.242;9.098;2022-12-29T17:17:38;10.40;99.90
16893;DHT22;8563;52.242;9.098;2022-12-29T17:20:15;10.30;99.90
16893;DHT22;8563;52.242;9.098;2022-12-29T17:22:49;10.30;99.90
16893;DHT22;8563;52.242;9.098;2022-12-29T17:25:28;10.30;99.90
16893;DHT22;8563;52.242;9.098;2022-12-29T17:28:03;10.30;99.90
16893;DHT22;8563;52.242;9.098;2022-12-29T17:30:36;10.40;99.90
16893;DHT22;8563;52.242;9.098;2022-12-29T17:33:12;10.40;99.90
16893;DHT22;8563;52.242;9.098;2022-12-29T17:35:45;10.40;99.90
16893;DHT22;8563;52.242;9.098;2022-12-29T17:38:20;10.40;99.90
16893;DHT22;8563;52.242;9.098;2022-12-29T17:40:55;10.40;99.90
16893;DHT22;8563;52.242;9.098;2022-12-29T17:51:22;10.30;99.90
16893;DHT22;8563;52.242;9.098;2022-12-29T17:53:54;9.50;99.90
16893;DHT22;8563;52.242;9.098;2022-12-29T17:56:28;9.20;99.90
16893;DHT22;8563;52.242;9.098;2022-12-29T18:06:57;8.90;99.90
16893;DHT22;8563;52.242;9.098;2022-12-29T18:09:29;8.90;99.90
16893;DHT22;8563;52.242;9.098;2022-12-29T18:12:03;8.90;99.90
16893;DHT22;8563;52.242;9.098;2022-12-29T18:14:35;8.90;99.90
16893;DHT22;8563;52.242;9.098;2022-12-29T18:17:11;8.90;99.90
16893;DHT22;8563;52.242;9.098;2022-12-29T18:19:43;8.90;99.90
16893;DHT22;8563;52.242;9.098;2022-12-29T18:22:15;8.90;99.90
16893;DHT22;8563;52.242;9.098;2022-12-29T18:24:48;8.90;99.90
16893;DHT22;8563;52.242;9.098;2022-12-29T18:27:22;8.90;99.90
16893;DHT22;8563;52.242;9.098;2022-12-29T18:29:54;9.00;99.90
16893;DHT22;8563;52.242;9.098;2022-12-29T18:32:27;9.00;99.90
16893;DHT22;8563;52.242;9.098;2022-12-29T18:34:59;8.90;99.90
16893;DHT22;8563;52.242;9.098;2022-12-29T18:37:31;9.00;99.90
16893;DHT22;8563;52.242;9.098;2022-12-29T18:40:05;9.00;99.90
16893;DHT22;8563;52.242;9.098;2022-12-29T18:42:39;9.00;99.90
16893;DHT22;8563;52.242;9.098;2022-12-29T18:45:16;9.00;99.90
16893;DHT22;8563;52.242;9.098;2022-12-29T18:47:49;8.90;99.90
16893;DHT22;8563;52.242;9.098;2022-12-29T18:50:21;8.90;99.90
16893;DHT22;8563;52.242;9.098;2022-12-29T18:52:53;9.00;99.90
16893;DHT22;8563;52.242;9.098;2022-12-29T18:55:27;9.00;99.90
16893;DHT22;8563;52.242;9.098;2022-12-29T18:58:01;9.00;99.90
16893;DHT22;8563;52.242;9.098;2022-12-29T19:00:33;9.00;99.90
16893;DHT22;8563;52.242;9.098;2022-12-29T19:03:05;9.10;99.90
16893;DHT22;8563;52.242;9.098;2022-12-29T19:05:40;9.10;99.90
16893;DHT22;8563;52.242;9.098;2022-12-29T19:08:12;9.10;99.90
16893;DHT22;8563;52.242;9.098;2022-12-29T19:10:45;9.00;99.90
16893;DHT22;8563;52.242;9.098;2022-12-29T19:13:21;9.00;99.90
16893;DHT22;8563;52.242;9.098;2022-12-29T19:15:58;9.00;99.90
16893;DHT22;8563;52.242;9.098;2022-12-29T19:18:31;8.90;99.90
16893;DHT22;8563;52.242;9.098;2022-12-29T19:21:03;8.90;99.90
16893;DHT22;8563;52.242;9.098;2022-12-29T19:23:35;8.90;99.90
16893;DHT22;8563;52.242;9.098;2022-12-29T19:26:20;9.00;99.90
16893;DHT22;8563;52.242;9.098;2022-12-29T19:28:59;9.00;99.90
16893;DHT22;8563;52.242;9.098;2022-12-29T19:31:31;9.00;99.90
16893;DHT22;8563;52.242;9.098;2022-12-29T19:34:03;9.00;99.90
16893;DHT22;8563;52.242;9.098;2022-12-29T19:36:35;9.00;99.90
16893;DHT22;8563;52.242;9.098;2022-12-29T19:39:08;8.90;99.90
16893;DHT22;8563;52.242;9.098;2022-12-29T19:41:40;8.90;99.90
16893;DHT22;8563;52.242;9.098;2022-12-29T19:44:14;8.90;99.90
16893;DHT22;8563;52.242;9.098;2022-12-29T19:46:47;8.80;99.90
16893;DHT22;8563;52.242;9.098;2022-12-29T19:49:19;8.80;99.90
16893;DHT22;8563;52.242;9.098;2022-12-29T19:51:51;8.80;99.90
16893;DHT22;8563;52.242;9.098;2022-12-29T19:54:24;8.70;99.90
16893;DHT22;8563;52.242;9.098;2022-12-29T19:56:56;8.70;99.90
16893;DHT22;8563;52.242;9.098;2022-12-29T19:59:30;8.70;99.90
16893;DHT22;8563;52.242;9.098;2022-12-29T20:02:02;8.80;99.90
16893;DHT22;8563;52.242;9.098;2022-12-29T20:04:35;8.80;99.90
16893;DHT22;8563;52.242;9.098;2022-12-29T20:07:07;8.70;99.90
16893;DHT22;8563;52.242;9.098;2022-12-29T20:09:40;8.70;99.90
16893;DHT22;8563;52.242;9.098;2022-12-29T20:12:12;8.70;99.90
16893;DHT22;8563;52.242;9.098;2022-12-29T20:14:47;8.70;99.90
16893;DHT22;8563;52.242;9.098;2022-12-29T20:17:19;8.70;99.90
16893;DHT22;8563;52.242;9.098;2022-12-29T20:19:52;8.60;99.90
16893;DHT22;8563;52.242;9.098;2022-12-29T20:22:24;8.60;99.90
16893;DHT22;8563;52.242;9.098;2022-12-29T20:24:56;8.50;99.90
16893;DHT22;8563;52.242;9.098;2022-12-29T20:27:28;8.50;99.90
16893;DHT22;8563;52.242;9.098;2022-12-29T20:30:03;8.50;99.90
16893;DHT22;8563;52.242;9.098;2022-12-29T20:32:37;8.50;99.90
16893;DHT22;8563;52.242;9.098;2022-12-29T20:35:11;8.60;99.90
16893;DHT22;8563;52.242;9.098;2022-12-29T20:37:43;8.50;99.90
16893;DHT22;8563;52.242;9.098;2022-12-29T20:40:16;8.60;99.90
16893;DHT22;8563;52.242;9.098;2022-12-29T20:42:48;8.60;99.90
16893;DHT22;8563;52.242;9.098;2022-12-29T20:45:22;8.60;99.90
16893;DHT22;8563;52.242;9.098;2022-12-29T20:47:54;8.60;99.90
16893;DHT22;8563;52.242;9.098;2022-12-29T20:50:26;8.60;99.90
16893;DHT22;8563;52.242;9.098;2022-12-29T20:52:59;8.60;99.90
16893;DHT22;8563;52.242;9.098;2022-12-29T20:55:31;8.70;99.90
16893;DHT22;8563;52.242;9.098;2022-12-29T20:58:03;8.70;99.90
16893;DHT22;8563;52.242;9.098;2022-12-29T21:00:37;8.70;99.90
16893;DHT22;8563;52.242;9.098;2022-12-29T21:03:10;8.70;99.90
16893;DHT22;8563;52.242;9.098;2022-12-29T21:05:42;8.70;99.90
16893;DHT22;8563;52.242;9.098;2022-12-29T21:08:14;8.70;99.90
16893;DHT22;8563;52.242;9.098;2022-12-29T21:10:46;8.80;99.90
16893;DHT22;8563;52.242;9.098;2022-12-29T21:13:19;8.70;99.90
16893;DHT22;8563;52.242;9.098;2022-12-29T21:15:57;8.70;99.90
16893;DHT22;8563;52.242;9.098;2022-12-29T21:18:30;8.70;99.90
16893;DHT22;8563;52.242;9.098;2022-12-29T21:21:03;8.70;99.90
16893;DHT22;8563;52.242;9.098;2022-12-29T21:23:37;8.70;99.90
16893;DHT22;8563;52.242;9.098;2022-12-29T21:26:11;8.70;99.90
16893;DHT22;8563;52.242;9.098;2022-12-29T21:28:44;8.60;99.90
16893;DHT22;8563;52.242;9.098;2022-12-29T21:31:24;8.70;99.90
16893;DHT22;8563;52.242;9.098;2022-12-29T21:33:57;8.70;99.90
16893;DHT22;8563;52.242;9.098;2022-12-29T21:36:30;8.70;99.90
16893;DHT22;8563;52.242;9.098;2022-12-29T21:39:02;8.60;99.90
16893;DHT22;8563;52.242;9.098;2022-12-29T21:41:35;8.60;99.90
16893;DHT22;8563;52.242;9.098;2022-12-29T21:44:07;8.60;99.90
16893;DHT22;8563;52.242;9.098;2022-12-29T21:47:03;8.60;99.90
16893;DHT22;8563;52.242;9.098;2022-12-29T21:49:36;8.60;99.90
16893;DHT22;8563;52.242;9.098;2022-12-29T21:52:09;8.70;99.90
16893;DHT22;8563;52.242;9.098;2022-12-29T21:54:41;8.60;99.90
16893;DHT22;8563;52.242;9.098;2022-12-29T21:57:31;8.60;99.90
16893;DHT22;8563;52.242;9.098;2022-12-29T22:00:21;8.60;99.90
16893;DHT22;8563;52.242;9.098;2022-12-29T22:03:12;8.60;99.90
16893;DHT22;8563;52.242;9.098;2022-12-29T22:06:01;8.60;99.90
16893;DHT22;8563;52.242;9.098;2022-12-29T22:08:51;8.60;99.90
16893;DHT22;8563;52.242;9.098;2022-12-29T22:11:40;8.60;99.90
16893;DHT22;8563;52.242;9.098;2022-12-29T22:14:30;8.60;99.90
16893;DHT22;8563;52.242;9.098;2022-12-29T22:17:02;8.60;99.90
16893;DHT22;8563;52.242;9.098;2022-12-29T22:19:36;8.60;99.90
16893;DHT22;8563;52.242;9.098;2022-12-29T22:22:09;8.60;99.90
16893;DHT22;8563;52.242;9.098;2022-12-29T22:24:41;8.60;99.90
16893;DHT22;8563;52.242;9.098;2022-12-29T22:27:14;8.60;99.90
16893;DHT22;8563;52.242;9.098;2022-12-29T22:29:46;8.60;99.90
16893;DHT22;8563;52.242;9.098;2022-12-29T22:32:18;8.60;99.90
16893;DHT22;8563;52.242;9.098;2022-12-29T22:34:52;8.60;99.90
16893;DHT22;8563;52.242;9.098;2022-12-29T22:37:24;8.60;99.90
16893;DHT22;8563;52.242;9.098;2022-12-29T22:39:56;8.60;99.90
16893;DHT22;8563;52.242;9.098;2022-12-29T22:42:28;8.60;99.90
16893;DHT22;8563;52.242;9.098;2022-12-29T22:45:01;8.50;99.90
16893;DHT22;8563;52.242;9.098;2022-12-29T22:47:33;8.50;99.90
16893;DHT22;8563;52.242;9.098;2022-12-29T22:50:08;8.50;99.90
16893;DHT22;8563;52.242;9.098;2022-12-29T22:52:41;8.60;99.90
16893;DHT22;8563;52.242;9.098;2022-12-29T22:55:13;8.60;99.90
16893;DHT22;8563;52.242;9.098;2022-12-29T22:57:46;8.50;99.90
16893;DHT22;8563;52.242;9.098;2022-12-29T23:00:18;8.50;99.90
16893;DHT22;8563;52.242;9.098;2022-12-29T23:02:51;8.60;99.90
16893;DHT22;8563;52.242;9.098;2022-12-29T23:05:25;8.60;99.90
16893;DHT22;8563;52.242;9.098;2022-12-29T23:07:59;8.50;99.90
16893;DHT22;8563;52.242;9.098;2022-12-29T23:10:31;8.50;99.90
16893;DHT22;8563;52.242;9.098;2022-12-29T23:13:03;8.60;99.90
16893;DHT22;8563;52.242;9.098;2022-12-29T23:15:35;8.60;99.90
16893;DHT22;8563;52.242;9.098;2022-12-29T23:18:08;8.60;99.90
16893;DHT22;8563;52.242;9.098;2022-12-29T23:20:43;8.60;99.90
16893;DHT22;8563;52.242;9.098;2022-12-29T23:23:15;8.60;99.90
16893;DHT22;8563;52.242;9.098;2022-12-29T23:26:09;8.60;99.90
16893;DHT22;8563;52.242;9.098;2022-12-29T23:28:42;8.60;99.90
16893;DHT22;8563;52.242;9.098;2022-12-29T23:31:15;8.60;99.90
16893;DHT22;8563;52.242;9.098;2022-12-29T23:33:48;8.60;99.90
16893;DHT22;8563;52.242;9.098;2022-12-29T23:36:22;8.60;99.90
16893;DHT22;8563;52.242;9.098;2022-12-29T23:38:54;8.60;99.90
16893;DHT22;8563;52.242;9.098;2022-12-29T23:41:27;8.60;99.90
16893;DHT22;8563;52.242;9.098;2022-12-29T23:43:59;8.60;99.90
16893;DHT22;8563;52.242;9.098;2022-12-29T23:46:32;8.60;99.90
16893;DHT22;8563;52.242;9.098;2022-12-29T23:49:05;8.50;99.90
16893;DHT22;8563;52.242;9.098;2022-12-29T23:51:39;8.60;99.90
16893;DHT22;8563;52.242;9.098;2022-12-29T23:54:11;8.50;99.90
16893;DHT22;8563;52.242;9.098;2022-12-29T23:56:43;8.50;99.90
16893;DHT22;8563;52.242;9.098;2022-12-29T23:59:16;8.50;99.90
